Time;durP1;ratioP1;P1;durP2;ratioP2;P2;SDS_P1;SDS_P2;PMS_P1;PMS_P2;Temp;Humidity;BMP_temperature;BMP_pressure;BME280_temperature;BME280_humidity;BME280_pressure;Samples;Min_cycle;Max_cycle;Signal;HPM_P1;HPM_P2
2022/03/07 00:02:12;;;;;;;2.65;1.15;;;7.60;80.80;;;;;;4933071;28;20107;-71
2022/03/07 00:04:39;;;;;;;3.60;1.20;;;7.70;80.90;;;;;;4950533;28;20490;-71
2022/03/07 00:07:05;;;;;;;3.83;1.30;;;7.60;80.90;;;;;;4946987;28;20111;-71
2022/03/07 00:09:31;;;;;;;3.83;1.10;;;7.60;80.90;;;;;;4940460;29;20490;-71
2022/03/07 00:11:56;;;;;;;2.42;1.23;;;7.60;80.90;;;;;;4948468;28;20066;-71
2022/03/07 00:14:22;;;;;;;2.60;1.08;;;7.60;80.90;;;;;;4950401;28;20118;-71
2022/03/07 00:16:48;;;;;;;5.25;1.27;;;7.50;80.90;;;;;;4949489;29;20027;-72
2022/03/07 00:19:14;;;;;;;2.75;0.90;;;7.50;80.80;;;;;;4950192;28;20039;-72
2022/03/07 00:21:39;;;;;;;2.95;1.35;;;7.50;80.80;;;;;;4937691;28;20089;-71
2022/03/07 00:24:07;;;;;;;5.45;1.23;;;7.50;80.80;;;;;;4949894;28;20045;-71
2022/03/07 00:26:33;;;;;;;3.90;1.13;;;7.40;80.80;;;;;;4938372;28;20110;-72
2022/03/07 00:28:59;;;;;;;2.40;1.10;;;7.40;80.80;;;;;;4947561;29;20039;-72
2022/03/07 00:31:25;;;;;;;3.45;1.23;;;7.40;80.80;;;;;;4971805;28;20099;-72
2022/03/07 00:33:51;;;;;;;5.25;1.20;;;7.40;80.80;;;;;;4990456;28;20047;-72
2022/03/07 00:36:19;;;;;;;5.10;1.30;;;7.30;80.80;;;;;;4944497;28;20027;-72
2022/03/07 00:38:45;;;;;;;3.42;1.52;;;7.30;80.80;;;;;;4941821;29;20121;-72
2022/03/07 00:41:13;;;;;;;3.65;1.40;;;7.30;80.80;;;;;;4935824;29;20119;-71
2022/03/07 00:43:40;;;;;;;1.60;1.17;;;7.30;80.80;;;;;;4949005;28;20044;-72
2022/03/07 00:46:06;;;;;;;1.80;1.20;;;7.30;80.80;;;;;;4960157;28;20030;-72
2022/03/07 00:48:35;;;;;;;5.07;1.52;;;7.20;80.70;;;;;;4949996;28;20039;-72
2022/03/07 00:51:01;;;;;;;1.52;1.10;;;7.20;80.70;;;;;;4942192;29;20078;-71
2022/03/07 00:53:27;;;;;;;5.32;1.40;;;7.20;80.80;;;;;;4945477;28;20035;-72
2022/03/07 00:55:55;;;;;;;5.45;1.38;;;7.10;80.90;;;;;;4943417;28;20044;-71
2022/03/07 00:58:22;;;;;;;7.38;1.45;;;7.10;81.10;;;;;;4957028;28;20043;-71
2022/03/07 01:00:49;;;;;;;1.25;0.90;;;7.10;81.20;;;;;;4979365;28;20110;-71
2022/03/07 01:03:16;;;;;;;2.63;1.20;;;7.10;81.10;;;;;;4944219;28;20173;-71
2022/03/07 01:05:43;;;;;;;2.67;1.13;;;7.20;81.00;;;;;;4938265;28;20023;-71
2022/03/07 01:08:10;;;;;;;3.58;1.58;;;7.10;80.90;;;;;;4940784;28;20059;-71
2022/03/07 01:10:36;;;;;;;1.15;1.00;;;7.10;80.90;;;;;;4938531;29;20031;-72
2022/03/07 01:13:02;;;;;;;3.20;1.20;;;7.10;81.50;;;;;;4951275;28;20035;-71
2022/03/07 01:15:28;;;;;;;1.90;1.13;;;7.00;80.80;;;;;;4940019;28;20054;-71
2022/03/07 01:17:54;;;;;;;4.05;1.15;;;7.00;80.80;;;;;;4952254;28;20031;-71
2022/03/07 01:20:21;;;;;;;1.88;1.30;;;7.00;80.80;;;;;;4951425;28;20038;-71
2022/03/07 01:22:48;;;;;;;1.95;1.15;;;7.00;80.80;;;;;;4953043;28;20098;-71
2022/03/07 01:25:13;;;;;;;3.33;1.13;;;7.00;80.80;;;;;;4944214;28;20027;-72
2022/03/07 01:27:40;;;;;;;6.55;1.58;;;7.00;80.80;;;;;;4939485;28;20097;-72
2022/03/07 01:30:06;;;;;;;4.13;1.38;;;6.90;80.80;;;;;;4945644;29;20386;-71
2022/03/07 01:32:32;;;;;;;1.98;1.50;;;6.90;80.90;;;;;;5009543;28;20029;-72
2022/03/07 01:34:58;;;;;;;2.72;1.27;;;6.90;81.00;;;;;;4955828;28;20057;-71
2022/03/07 01:37:24;;;;;;;3.65;1.25;;;6.80;80.90;;;;;;4952404;29;20548;-72
2022/03/07 01:39:50;;;;;;;6.00;1.20;;;6.80;80.90;;;;;;4955502;28;20047;-72
2022/03/07 01:42:15;;;;;;;3.05;1.23;;;6.80;80.90;;;;;;4952360;29;20027;-71
2022/03/07 01:44:41;;;;;;;1.67;1.20;;;6.80;80.80;;;;;;4958693;28;20389;-72
2022/03/07 01:47:07;;;;;;;1.30;1.00;;;6.80;80.80;;;;;;4955565;28;20035;-72
2022/03/07 01:49:35;;;;;;;2.60;1.20;;;6.70;80.80;;;;;;4951151;28;20493;-72
2022/03/07 01:52:01;;;;;;;1.85;1.08;;;6.80;80.90;;;;;;4952378;28;20032;-72
2022/03/07 01:54:28;;;;;;;6.07;1.55;;;6.80;80.90;;;;;;4947297;28;20035;-71
2022/03/07 01:56:54;;;;;;;2.60;1.23;;;6.70;80.90;;;;;;4940124;29;20517;-72
2022/03/07 01:59:23;;;;;;;2.25;1.52;;;6.70;81.00;;;;;;4939773;28;20035;-72
2022/03/07 02:01:50;;;;;;;1.65;1.17;;;6.70;81.20;;;;;;4937756;28;20386;-71
2022/03/07 02:04:16;;;;;;;3.17;1.25;;;6.70;81.30;;;;;;4937534;28;20039;-72
2022/03/07 02:06:44;;;;;;;3.78;1.35;;;6.60;81.20;;;;;;5006197;28;20028;-72
2022/03/07 02:09:11;;;;;;;2.10;1.20;;;6.60;81.20;;;;;;4930157;29;20035;-72
2022/03/07 02:11:41;;;;;;;2.63;1.05;;;6.60;81.70;;;;;;4950844;28;20031;-71
2022/03/07 02:14:22;;;;;;;5.38;1.17;;;6.50;82.60;;;;;;4942146;28;20042;-71
2022/03/07 02:16:52;;;;;;;3.53;1.40;;;6.50;82.10;;;;;;4947112;29;20019;-71
2022/03/07 02:19:18;;;;;;;4.07;1.30;;;6.50;82.10;;;;;;4950855;28;20390;-71
2022/03/07 02:21:49;;;;;;;3.28;1.30;;;6.50;82.00;;;;;;4947512;28;20028;-71
2022/03/07 02:24:25;;;;;;;6.60;1.48;;;6.50;82.00;;;;;;4975190;28;20035;-71
2022/03/07 02:26:58;;;;;;;3.22;1.30;;;6.50;82.10;;;;;;4957275;28;20158;-72
2022/03/07 02:29:26;;;;;;;1.92;1.45;;;6.50;82.20;;;;;;4940061;28;20027;-71
2022/03/07 02:31:53;;;;;;;4.03;1.75;;;6.40;82.20;;;;;;4952804;28;20031;-71
2022/03/07 02:34:21;;;;;;;3.08;1.50;;;6.40;82.10;;;;;;4950562;28;20038;-72
2022/03/07 02:36:47;;;;;;;2.60;1.50;;;6.40;82.10;;;;;;4949601;28;20034;-72
2022/03/07 02:39:14;;;;;;;3.65;1.40;;;6.40;82.00;;;;;;4950574;28;20035;-72
2022/03/07 02:41:41;;;;;;;4.78;1.40;;;6.40;82.00;;;;;;4972355;28;20031;-72
2022/03/07 02:44:08;;;;;;;3.05;1.27;;;6.40;82.10;;;;;;4949688;28;20039;-72
2022/03/07 02:46:34;;;;;;;4.22;1.30;;;6.30;82.20;;;;;;4937456;28;20587;-72
2022/03/07 02:49:00;;;;;;;1.70;1.23;;;6.30;82.60;;;;;;4951583;28;20100;-72
2022/03/07 02:51:26;;;;;;;3.42;1.50;;;6.20;83.10;;;;;;4947814;28;20042;-72
2022/03/07 02:53:52;;;;;;;7.47;1.65;;;6.20;83.50;;;;;;4946600;28;20043;-72
2022/03/07 02:56:18;;;;;;;1.58;1.27;;;6.20;83.70;;;;;;4938625;29;20047;-72
2022/03/07 02:58:44;;;;;;;4.80;1.27;;;6.20;83.90;;;;;;4976436;28;20482;-72
2022/03/07 03:01:09;;;;;;;6.32;1.65;;;6.10;83.90;;;;;;4951423;28;20114;-72
2022/03/07 03:03:35;;;;;;;4.25;1.23;;;6.10;84.50;;;;;;4967485;28;20040;-72
2022/03/07 03:06:01;;;;;;;6.82;1.60;;;6.10;84.10;;;;;;5037501;28;20090;-72
2022/03/07 03:08:27;;;;;;;3.78;1.63;;;6.10;84.30;;;;;;5022389;28;20033;-73
2022/03/07 03:10:53;;;;;;;6.32;1.50;;;6.10;84.50;;;;;;4950837;28;20031;-72
2022/03/07 03:13:22;;;;;;;6.10;1.92;;;6.00;84.50;;;;;;5007339;28;20110;-72
2022/03/07 03:15:51;;;;;;;4.00;1.52;;;6.00;84.50;;;;;;4944099;28;20042;-72
2022/03/07 03:18:21;;;;;;;6.53;1.73;;;6.10;84.60;;;;;;4951619;28;20133;-72
2022/03/07 03:20:48;;;;;;;8.80;1.88;;;6.00;84.60;;;;;;4992195;28;20044;-72
2022/03/07 03:23:14;;;;;;;3.28;1.75;;;6.00;84.60;;;;;;4964872;28;20051;-72
2022/03/07 03:25:40;;;;;;;5.07;1.98;;;6.00;84.60;;;;;;4941243;29;20037;-72
2022/03/07 03:28:06;;;;;;;5.53;1.70;;;6.00;84.70;;;;;;4951047;28;20445;-72
2022/03/07 03:30:32;;;;;;;3.97;1.70;;;6.00;84.70;;;;;;4951199;28;20082;-71
2022/03/07 03:32:58;;;;;;;3.22;1.75;;;6.00;84.80;;;;;;5022479;28;20475;-71
2022/03/07 03:35:24;;;;;;;2.80;1.65;;;6.00;84.90;;;;;;4942468;28;20031;-72
2022/03/07 03:37:51;;;;;;;5.85;1.85;;;6.00;85.10;;;;;;4990178;28;20052;-72
2022/03/07 03:40:17;;;;;;;4.50;1.60;;;5.90;85.20;;;;;;4968480;28;20038;-72
2022/03/07 03:42:43;;;;;;;4.03;1.63;;;5.90;85.40;;;;;;4942742;28;20048;-71
2022/03/07 03:45:10;;;;;;;4.65;1.73;;;5.90;85.50;;;;;;4935016;29;20043;-72
2022/03/07 03:47:36;;;;;;;3.60;1.63;;;5.80;85.60;;;;;;4968172;28;20035;-72
2022/03/07 03:50:04;;;;;;;4.63;1.92;;;5.80;85.60;;;;;;4938028;28;20039;-71
2022/03/07 03:52:32;;;;;;;4.25;1.88;;;5.80;85.60;;;;;;4938595;28;20039;-72
2022/03/07 03:54:59;;;;;;;5.43;1.67;;;5.80;85.60;;;;;;4945428;28;20561;-70
2022/03/07 03:57:25;;;;;;;5.65;1.75;;;5.80;85.70;;;;;;4938846;29;20166;-71
2022/03/07 03:59:51;;;;;;;5.97;2.10;;;5.80;85.60;;;;;;4934078;28;20078;-71
2022/03/07 04:02:16;;;;;;;3.15;1.63;;;5.80;85.60;;;;;;4936721;28;20031;-72
2022/03/07 04:04:42;;;;;;;3.78;1.50;;;5.80;85.50;;;;;;4938885;28;20453;-71
2022/03/07 04:07:08;;;;;;;3.42;1.80;;;5.80;85.40;;;;;;4937260;28;20047;-71
2022/03/07 04:09:34;;;;;;;5.82;2.03;;;5.80;85.30;;;;;;4935226;28;20028;-70
2022/03/07 04:12:00;;;;;;;4.07;1.58;;;5.80;85.20;;;;;;4949016;28;20482;-71
2022/03/07 04:14:26;;;;;;;6.70;1.73;;;5.70;85.20;;;;;;4935054;28;20039;-71
2022/03/07 04:16:51;;;;;;;3.10;1.95;;;5.70;85.20;;;;;;4938462;29;20040;-71
2022/03/07 04:19:17;;;;;;;5.93;1.90;;;5.70;85.20;;;;;;4935874;29;20038;-72
2022/03/07 04:21:43;;;;;;;2.17;1.67;;;5.70;85.10;;;;;;4950099;28;20040;-71
2022/03/07 04:24:11;;;;;;;15.48;1.98;;;5.70;85.00;;;;;;4938593;29;20043;-71
2022/03/07 04:26:39;;;;;;;3.88;1.70;;;5.70;84.90;;;;;;4950112;28;20023;-71
2022/03/07 04:29:07;;;;;;;7.65;2.00;;;5.70;84.80;;;;;;4944692;29;20046;-71
2022/03/07 04:31:38;;;;;;;4.70;2.10;;;5.60;84.60;;;;;;4950770;28;20124;-71
2022/03/07 04:34:04;;;;;;;3.35;1.88;;;5.60;84.50;;;;;;4952462;28;20043;-71
2022/03/07 04:36:30;;;;;;;7.20;2.10;;;5.60;84.50;;;;;;4952793;28;20031;-71
2022/03/07 04:38:56;;;;;;;4.15;1.75;;;5.60;84.50;;;;;;4953343;28;20039;-71
2022/03/07 04:41:22;;;;;;;3.92;1.75;;;5.60;84.40;;;;;;4949086;28;20105;-71
2022/03/07 04:43:48;;;;;;;4.25;2.10;;;5.60;84.40;;;;;;4934444;28;20044;-71
2022/03/07 04:46:13;;;;;;;4.80;1.85;;;5.60;84.40;;;;;;4937951;28;20035;-71
2022/03/07 04:48:39;;;;;;;3.45;1.98;;;5.50;84.30;;;;;;4942907;28;20039;-71
2022/03/07 04:51:04;;;;;;;4.68;1.92;;;5.50;84.50;;;;;;4940576;29;20467;-71
2022/03/07 04:53:33;;;;;;;4.07;1.80;;;5.40;84.50;;;;;;4946212;28;20033;-72
2022/03/07 04:55:59;;;;;;;2.80;1.85;;;5.50;84.70;;;;;;4948992;28;20048;-71
2022/03/07 04:58:25;;;;;;;4.57;2.00;;;5.50;84.90;;;;;;4942684;28;20041;-71
2022/03/07 05:00:53;;;;;;;7.55;2.05;;;5.40;84.90;;;;;;4939772;28;20446;-73
2022/03/07 05:03:19;;;;;;;4.95;1.80;;;5.40;85.00;;;;;;4942605;29;20078;-73
2022/03/07 05:05:45;;;;;;;4.72;2.00;;;5.40;85.20;;;;;;4939825;28;20059;-73
2022/03/07 05:08:10;;;;;;;4.15;1.95;;;5.40;85.40;;;;;;4944518;29;20035;-71
2022/03/07 05:10:36;;;;;;;4.18;2.22;;;5.30;85.50;;;;;;4935264;28;20042;-72
2022/03/07 05:13:02;;;;;;;3.80;1.73;;;5.30;85.60;;;;;;4964486;28;20028;-72
2022/03/07 05:15:27;;;;;;;5.47;2.08;;;5.20;85.60;;;;;;4945234;29;20149;-72
2022/03/07 05:17:54;;;;;;;5.72;1.92;;;5.30;85.60;;;;;;4939574;28;20478;-71
2022/03/07 05:20:22;;;;;;;5.03;2.00;;;5.30;85.50;;;;;;4953148;28;20105;-71
2022/03/07 05:22:48;;;;;;;2.72;1.85;;;5.20;85.30;;;;;;4952615;28;20135;-71
2022/03/07 05:25:15;;;;;;;2.72;1.73;;;5.30;85.20;;;;;;4951405;28;20550;-71
2022/03/07 05:27:41;;;;;;;6.75;1.83;;;5.30;85.00;;;;;;4946814;28;20385;-71
2022/03/07 05:30:10;;;;;;;6.38;2.22;;;5.30;85.00;;;;;;4945926;28;20042;-72
2022/03/07 05:32:35;;;;;;;3.63;1.70;;;5.30;84.80;;;;;;5002154;28;20027;-71
2022/03/07 05:35:01;;;;;;;3.10;1.70;;;5.20;84.70;;;;;;4940726;28;20660;-71
2022/03/07 05:37:27;;;;;;;3.35;1.75;;;5.20;84.70;;;;;;4940862;28;20394;-71
2022/03/07 05:39:52;;;;;;;5.25;2.22;;;5.20;84.70;;;;;;4950817;28;20054;-71
2022/03/07 05:42:18;;;;;;;3.88;1.90;;;5.20;84.60;;;;;;4952641;28;20039;-71
2022/03/07 05:44:44;;;;;;;5.60;1.98;;;5.20;84.60;;;;;;4950344;28;20055;-72
2022/03/07 05:47:10;;;;;;;3.70;1.88;;;5.20;84.60;;;;;;4951293;28;20472;-71
2022/03/07 05:49:36;;;;;;;4.60;2.03;;;5.10;84.50;;;;;;4973864;28;20039;-71
2022/03/07 05:52:02;;;;;;;11.10;2.00;;;5.20;84.50;;;;;;4954722;28;20158;-71
2022/03/07 05:54:28;;;;;;;4.68;2.00;;;5.10;84.40;;;;;;4970988;28;20027;-71
2022/03/07 05:56:53;;;;;;;3.92;1.85;;;5.10;84.30;;;;;;4949690;28;20048;-71
2022/03/07 05:59:19;;;;;;;2.05;1.67;;;5.10;84.20;;;;;;4941022;28;20447;-71
2022/03/07 06:01:44;;;;;;;3.13;2.08;;;5.10;84.20;;;;;;4952211;28;20114;-72
2022/03/07 06:04:10;;;;;;;3.20;1.52;;;5.10;84.20;;;;;;4952614;28;20047;-72
2022/03/07 06:06:36;;;;;;;5.80;1.80;;;5.00;84.20;;;;;;4951296;28;20038;-71
2022/03/07 06:09:01;;;;;;;6.93;1.80;;;5.10;84.30;;;;;;4952430;28;20023;-71
2022/03/07 06:11:27;;;;;;;4.65;2.20;;;5.00;84.30;;;;;;4964760;28;20040;-70
2022/03/07 06:13:53;;;;;;;4.25;2.00;;;5.00;84.40;;;;;;4961245;28;20031;-70
2022/03/07 06:16:18;;;;;;;2.60;1.90;;;5.00;84.50;;;;;;4950212;28;20031;-73
2022/03/07 06:18:44;;;;;;;4.55;2.13;;;5.00;84.60;;;;;;4949969;28;20034;-73
2022/03/07 06:21:10;;;;;;;4.55;1.88;;;5.00;84.80;;;;;;4960613;28;20059;-70
2022/03/07 06:23:39;;;;;;;5.00;1.92;;;5.00;85.00;;;;;;4950313;28;20039;-70
2022/03/07 06:26:06;;;;;;;2.85;1.70;;;4.90;85.00;;;;;;4949408;28;20031;-69
2022/03/07 06:28:32;;;;;;;8.80;1.95;;;4.90;85.30;;;;;;4958326;28;20031;-69
2022/03/07 06:30:58;;;;;;;10.38;2.00;;;4.90;85.50;;;;;;4958426;28;20078;-70
2022/03/07 06:33:24;;;;;;;3.33;2.00;;;4.80;85.60;;;;;;4950967;28;20050;-70
2022/03/07 06:35:50;;;;;;;5.68;2.40;;;4.80;85.70;;;;;;4949854;28;20031;-76
2022/03/07 06:38:19;;;;;;;3.50;1.95;;;4.70;85.80;;;;;;4950788;28;20573;-70
2022/03/07 06:40:46;;;;;;;3.67;1.92;;;4.70;86.10;;;;;;4944592;28;20059;-70
2022/03/07 06:43:12;;;;;;;7.20;2.42;;;4.70;86.10;;;;;;4945335;28;20043;-70
2022/03/07 06:45:38;;;;;;;4.07;2.42;;;4.70;86.30;;;;;;4944181;28;20059;-70
2022/03/07 06:48:04;;;;;;;15.30;2.20;;;4.70;86.50;;;;;;4945407;29;20042;-70
2022/03/07 06:50:30;;;;;;;9.15;2.35;;;4.60;86.50;;;;;;4948863;28;20031;-70
2022/03/07 06:52:56;;;;;;;11.23;2.50;;;4.70;86.60;;;;;;4945726;29;20035;-71
2022/03/07 06:55:22;;;;;;;8.43;2.60;;;4.70;86.70;;;;;;4945390;28;20553;-71
2022/03/07 06:57:47;;;;;;;6.68;2.40;;;4.70;86.80;;;;;;4952119;28;20050;-70
2022/03/07 07:00:15;;;;;;;4.60;2.42;;;4.60;86.80;;;;;;4957682;28;20031;-72
2022/03/07 07:02:41;;;;;;;12.20;2.55;;;4.70;86.90;;;;;;4949592;28;20213;-69
2022/03/07 07:05:08;;;;;;;3.55;1.92;;;4.70;87.00;;;;;;4944859;29;20124;-69
2022/03/07 07:07:34;;;;;;;5.90;2.08;;;4.60;87.10;;;;;;4953692;28;20035;-69
2022/03/07 07:10:01;;;;;;;4.25;2.28;;;4.60;87.20;;;;;;4974299;28;20397;-69
2022/03/07 07:12:27;;;;;;;7.43;2.70;;;4.70;87.40;;;;;;5010075;28;20033;-69
2022/03/07 07:14:53;;;;;;;16.30;2.45;;;4.60;87.60;;;;;;4938899;28;20027;-70
2022/03/07 07:17:19;;;;;;;3.53;2.03;;;4.70;87.80;;;;;;4949889;28;20391;-71
2022/03/07 07:19:44;;;;;;;6.30;1.95;;;4.60;87.90;;;;;;4939228;28;20039;-69
2022/03/07 07:22:10;;;;;;;8.02;2.10;;;4.60;88.00;;;;;;4949882;29;20042;-68
2022/03/07 07:24:36;;;;;;;4.20;1.90;;;4.70;88.20;;;;;;4938623;29;20051;-68
2022/03/07 07:27:02;;;;;;;4.57;2.05;;;4.70;88.30;;;;;;4950664;28;20116;-68
2022/03/07 07:29:28;;;;;;;5.70;2.22;;;4.70;88.40;;;;;;4951111;28;20089;-68
2022/03/07 07:31:53;;;;;;;6.22;2.35;;;4.70;88.60;;;;;;4999777;28;20032;-71
2022/03/07 07:34:20;;;;;;;3.58;2.00;;;4.70;88.80;;;;;;4950886;28;20097;-67
2022/03/07 07:36:46;;;;;;;2.75;1.92;;;4.70;88.90;;;;;;4950641;28;20122;-70
2022/03/07 07:39:12;;;;;;;5.65;1.95;;;4.70;89.00;;;;;;4941965;28;20044;-68
2022/03/07 07:41:38;;;;;;;2.63;1.80;;;4.70;89.20;;;;;;4946299;29;20031;-68
2022/03/07 07:44:04;;;;;;;8.65;2.40;;;4.70;89.30;;;;;;4942313;28;20105;-69
2022/03/07 07:46:29;;;;;;;8.00;2.10;;;4.70;89.50;;;;;;4946037;29;20046;-68
2022/03/07 07:48:56;;;;;;;6.05;1.92;;;4.70;89.80;;;;;;4942002;28;20481;-68
2022/03/07 07:51:22;;;;;;;3.78;2.17;;;4.70;90.00;;;;;;4947049;29;20024;-68
2022/03/07 07:53:47;;;;;;;2.83;1.90;;;4.70;90.10;;;;;;4940417;28;20474;-68
2022/03/07 07:56:13;;;;;;;2.83;2.10;;;4.70;90.30;;;;;;4945404;28;20047;-68
2022/03/07 07:58:39;;;;;;;3.70;2.28;;;4.80;90.40;;;;;;4940750;28;20031;-69
2022/03/07 08:01:05;;;;;;;2.60;1.65;;;4.70;90.50;;;;;;4950169;28;20031;-68
2022/03/07 08:03:31;;;;;;;1.50;1.40;;;4.70;90.60;;;;;;4950650;28;20093;-68
2022/03/07 08:05:57;;;;;;;2.88;1.60;;;4.70;90.70;;;;;;4949581;28;20031;-68
2022/03/07 08:08:25;;;;;;;1.73;1.38;;;4.70;90.80;;;;;;4939603;28;20071;-68
2022/03/07 08:10:51;;;;;;;4.40;1.70;;;4.70;91.00;;;;;;4957361;28;20081;-69
2022/03/07 08:13:17;;;;;;;1.33;1.23;;;4.80;91.30;;;;;;5013884;28;20037;-68
2022/03/07 08:15:42;;;;;;;3.50;1.77;;;4.80;91.30;;;;;;4947585;29;20046;-68
2022/03/07 08:18:08;;;;;;;1.50;1.40;;;4.80;91.40;;;;;;4960409;28;20042;-68
2022/03/07 08:20:35;;;;;;;2.20;1.40;;;4.80;91.50;;;;;;4957687;28;20025;-68
2022/03/07 08:23:01;;;;;;;1.88;1.40;;;4.80;91.60;;;;;;4960620;28;20055;-68
2022/03/07 08:25:27;;;;;;;2.88;1.10;;;4.80;92.00;;;;;;4960855;28;20042;-68
2022/03/07 08:27:53;;;;;;;2.08;1.63;;;4.80;91.80;;;;;;4948777;28;20035;-68
2022/03/07 08:30:22;;;;;;;3.78;1.00;;;4.80;92.00;;;;;;4960748;28;20498;-69
2022/03/07 08:32:49;;;;;;;3.53;0.73;;;4.80;92.10;;;;;;4957503;28;20038;-68
2022/03/07 08:35:15;;;;;;;1.10;1.00;;;4.80;92.20;;;;;;4982056;28;20393;-68
2022/03/07 08:37:46;;;;;;;0.60;0.60;;;4.80;92.30;;;;;;4949799;28;20039;-69
2022/03/07 08:40:14;;;;;;;3.30;1.40;;;4.80;92.40;;;;;;4938253;29;20421;-71
2022/03/07 08:42:40;;;;;;;5.15;1.48;;;4.80;92.50;;;;;;4948359;28;20040;-74
2022/03/07 08:45:07;;;;;;;4.30;1.38;;;4.80;92.60;;;;;;4950371;28;20046;-70
2022/03/07 08:47:34;;;;;;;3.17;0.93;;;4.80;92.70;;;;;;4949440;28;20031;-70
2022/03/07 08:49:59;;;;;;;1.15;1.05;;;4.80;92.70;;;;;;4948611;28;20035;-70
2022/03/07 08:52:25;;;;;;;0.60;0.60;;;4.90;92.80;;;;;;4971405;28;20046;-70
2022/03/07 08:54:54;;;;;;;0.73;0.73;;;4.90;92.90;;;;;;4952562;28;20039;-72
2022/03/07 08:57:20;;;;;;;0.93;0.90;;;4.90;93.00;;;;;;4939577;28;20371;-71
2022/03/07 08:59:45;;;;;;;0.93;0.88;;;4.90;93.00;;;;;;4951978;28;20089;-69
2022/03/07 09:02:12;;;;;;;0.73;0.73;;;4.90;93.00;;;;;;4955653;28;20568;-69
2022/03/07 09:04:40;;;;;;;9.75;1.02;;;4.90;93.10;;;;;;4949870;28;20039;-78
2022/03/07 09:07:06;;;;;;;1.27;1.17;;;5.00;93.20;;;;;;4937576;29;20153;-74
2022/03/07 09:09:32;;;;;;;3.03;1.60;;;5.00;93.20;;;;;;4949447;28;20047;-71
2022/03/07 09:11:58;;;;;;;3.78;1.70;;;5.00;93.20;;;;;;4990891;28;20113;-71
2022/03/07 09:14:27;;;;;;;4.03;1.52;;;5.10;93.20;;;;;;4955710;28;20027;-71
2022/03/07 09:16:53;;;;;;;5.28;1.33;;;5.20;93.20;;;;;;4949074;28;20042;-69
2022/03/07 09:19:18;;;;;;;2.30;1.20;;;5.20;93.20;;;;;;4948224;28;20028;-69
2022/03/07 09:21:44;;;;;;;5.75;2.58;;;5.30;93.20;;;;;;4944125;28;20035;-70
2022/03/07 09:24:10;;;;;;;5.10;1.85;;;5.30;93.20;;;;;;4967899;28;20050;-71
2022/03/07 09:26:35;;;;;;;2.72;0.77;;;5.40;93.20;;;;;;4943497;29;20057;-71
2022/03/07 09:29:01;;;;;;;9.40;1.80;;;5.40;93.10;;;;;;4952934;28;20058;-69
2022/03/07 09:31:27;;;;;;;6.32;1.75;;;5.50;93.10;;;;;;4985590;28;20025;-70
2022/03/07 09:33:53;;;;;;;3.03;1.50;;;5.60;93.10;;;;;;4970788;28;20046;-70
2022/03/07 09:36:18;;;;;;;2.90;1.60;;;5.70;93.10;;;;;;4953166;28;20035;-69
2022/03/07 09:38:45;;;;;;;2.42;1.67;;;5.70;93.00;;;;;;4951966;28;20169;-68
2022/03/07 09:41:11;;;;;;;9.45;1.80;;;5.80;93.10;;;;;;4952949;28;20039;-68
2022/03/07 09:43:37;;;;;;;7.93;2.03;;;5.80;93.10;;;;;;4938650;29;20561;-68
2022/03/07 09:46:04;;;;;;;4.13;1.70;;;5.90;93.20;;;;;;4941554;28;20036;-71
2022/03/07 09:48:30;;;;;;;3.80;1.55;;;6.00;93.20;;;;;;4950248;28;20039;-71
2022/03/07 09:50:56;;;;;;;9.27;1.75;;;6.10;93.20;;;;;;4952582;29;20039;-71
2022/03/07 09:53:23;;;;;;;5.85;2.15;;;6.20;93.20;;;;;;4938836;28;20502;-72
2022/03/07 09:55:49;;;;;;;9.25;2.03;;;6.20;93.20;;;;;;4942578;28;20044;-71
2022/03/07 09:58:16;;;;;;;3.35;1.65;;;6.30;93.20;;;;;;4950602;28;20041;-72
2022/03/07 10:00:42;;;;;;;10.68;1.65;;;6.40;93.40;;;;;;4951627;28;20110;-72
2022/03/07 10:03:11;;;;;;;3.67;1.38;;;6.50;93.50;;;;;;4952058;28;20043;-72
2022/03/07 10:05:40;;;;;;;8.80;2.67;;;6.60;93.50;;;;;;4951559;28;20134;-71
2022/03/07 10:08:07;;;;;;;6.22;1.70;;;6.70;93.50;;;;;;4940421;28;20066;-67
2022/03/07 10:10:35;;;;;;;5.57;1.60;;;6.80;93.40;;;;;;4951549;28;20039;-67
2022/03/07 10:13:07;;;;;;;4.15;1.50;;;6.90;93.40;;;;;;5010469;28;20035;-72
2022/03/07 10:15:34;;;;;;;6.80;1.60;;;7.00;93.40;;;;;;4940091;28;20035;-68
2022/03/07 10:17:59;;;;;;;4.63;1.42;;;7.10;93.30;;;;;;4951604;28;20027;-68
2022/03/07 10:20:26;;;;;;;5.68;1.90;;;7.20;93.30;;;;;;4951442;28;20426;-68
2022/03/07 10:22:55;;;;;;;8.05;1.73;;;7.30;93.20;;;;;;4944849;29;20063;-68
2022/03/07 10:25:26;;;;;;;8.68;1.80;;;7.30;93.20;;;;;;4946538;28;20042;-68
2022/03/07 10:27:52;;;;;;;7.22;1.60;;;7.40;93.10;;;;;;4951324;28;20069;-68
2022/03/07 10:30:24;;;;;;;5.80;1.30;;;7.50;93.00;;;;;;4949406;28;20062;-68
2022/03/07 10:32:59;;;;;;;6.78;1.70;;;7.50;92.80;;;;;;4975714;28;20032;-71
2022/03/07 10:35:31;;;;;;;3.70;1.38;;;7.60;92.70;;;;;;4953675;28;20223;-72
2022/03/07 10:38:02;;;;;;;8.52;1.58;;;7.70;92.60;;;;;;4945838;28;20467;-68
2022/03/07 10:40:32;;;;;;;14.27;2.55;;;7.70;92.50;;;;;;4944330;29;20114;-71
2022/03/07 10:43:00;;;;;;;6.60;1.40;;;7.70;92.50;;;;;;4939449;28;20108;-79
2022/03/07 10:45:28;;;;;;;3.55;1.35;;;7.80;92.50;;;;;;4951117;28;20054;-68
2022/03/07 10:47:55;;;;;;;9.07;1.75;;;7.90;92.40;;;;;;4993550;28;20035;-68
2022/03/07 10:50:24;;;;;;;9.25;2.13;;;8.00;92.30;;;;;;4939529;28;20047;-68
2022/03/07 10:52:52;;;;;;;2.72;1.80;;;8.00;92.10;;;;;;4951331;28;20490;-68
2022/03/07 10:55:23;;;;;;;4.38;1.60;;;8.10;92.00;;;;;;4955463;28;20397;-68
2022/03/07 10:57:49;;;;;;;7.95;1.50;;;8.10;91.80;;;;;;4951197;28;20047;-67
2022/03/07 11:00:17;;;;;;;6.43;1.75;;;8.20;91.80;;;;;;4945974;28;20067;-67
2022/03/07 11:02:47;;;;;;;6.75;1.60;;;8.20;91.60;;;;;;4944182;29;20047;-68
2022/03/07 11:05:18;;;;;;;8.27;1.45;;;8.30;91.60;;;;;;4939228;29;20537;-67
2022/03/07 11:07:51;;;;;;;4.88;1.52;;;8.30;91.50;;;;;;4949760;28;20057;-67
2022/03/07 11:10:17;;;;;;;;;;;8.40;91.30;;;;;;4955017;28;20483;-68
2022/03/07 11:12:44;;;;;;;6.88;1.75;;;8.50;91.30;;;;;;5011399;28;19953;-68
2022/03/07 11:15:14;;;;;;;1.85;1.42;;;8.50;90.90;;;;;;4951571;28;20047;-68
2022/03/07 11:17:42;;;;;;;8.35;1.77;;;8.60;90.70;;;;;;4950493;28;20059;-68
2022/03/07 11:20:11;;;;;;;5.00;1.52;;;8.60;90.40;;;;;;4951251;28;20031;-68
2022/03/07 11:22:36;;;;;;;4.20;1.67;;;8.60;90.50;;;;;;4947362;28;20114;-69
2022/03/07 11:25:05;;;;;;;4.05;1.75;;;8.70;90.40;;;;;;4932551;28;20138;-69
2022/03/07 11:27:32;;;;;;;7.15;2.00;;;8.70;90.40;;;;;;4944527;28;20070;-70
2022/03/07 11:29:57;;;;;;;5.30;1.60;;;8.70;90.10;;;;;;4955072;28;20042;-74
2022/03/07 11:32:23;;;;;;;5.85;1.48;;;8.70;89.90;;;;;;4951896;28;20047;-66
2022/03/07 11:34:58;;;;;;;4.93;1.73;;;8.70;89.80;;;;;;4951156;28;20039;-68
2022/03/07 11:37:30;;;;;;;5.97;2.08;;;8.80;89.70;;;;;;4949558;28;20070;-67
2022/03/07 11:39:58;;;;;;;3.35;1.50;;;8.80;88.90;;;;;;4944463;29;20039;-68
2022/03/07 11:42:37;;;;;;;6.13;3.17;;;8.90;88.30;;;;;;4950854;28;20039;-68
2022/03/07 11:45:09;;;;;;;5.30;1.50;;;8.90;87.90;;;;;;4949983;28;20051;-68
2022/03/07 11:47:40;;;;;;;3.17;1.50;;;8.90;87.70;;;;;;4955066;28;20046;-68
2022/03/07 11:50:06;;;;;;;6.05;1.63;;;8.90;87.70;;;;;;4934357;28;20036;-68
2022/03/07 11:52:33;;;;;;;5.55;1.80;;;8.90;87.30;;;;;;4930711;28;20036;-68
2022/03/07 11:55:00;;;;;;;5.60;1.80;;;8.90;87.20;;;;;;4950346;28;20382;-68
2022/03/07 11:57:44;;;;;;;3.20;1.65;;;8.90;86.90;;;;;;4950203;28;20051;-68
2022/03/07 12:00:26;;;;;;;7.10;1.98;;;8.90;86.70;;;;;;4930899;28;20039;-68
2022/03/07 12:02:58;;;;;;;3.35;1.70;;;8.90;86.40;;;;;;4944065;28;20130;-68
2022/03/07 12:05:28;;;;;;;13.35;1.85;;;8.90;85.90;;;;;;4942114;28;20104;-68
2022/03/07 12:08:17;;;;;;;5.28;1.35;;;8.90;86.00;;;;;;4938764;28;20406;-68
2022/03/07 12:10:55;;;;;;;8.05;1.48;;;8.90;85.90;;;;;;4950431;28;20046;-69
2022/03/07 12:13:21;;;;;;;0.95;0.70;;;9.00;85.90;;;;;;5002201;28;20050;-70
2022/03/07 12:15:53;;;;;;;5.63;1.10;;;8.90;85.90;;;;;;4933256;28;20371;-68
2022/03/07 12:18:20;;;;;;;2.40;1.20;;;8.90;86.50;;;;;;4943381;28;20044;-68
2022/03/07 12:20:54;;;;;;;5.13;1.85;;;8.90;86.60;;;;;;4945464;29;20035;-72
2022/03/07 12:23:22;;;;;;;5.55;1.70;;;8.80;86.50;;;;;;4950497;28;20039;-68
2022/03/07 12:25:59;;;;;;;5.88;1.88;;;8.80;85.90;;;;;;4959915;28;20402;-67
2022/03/07 12:28:34;;;;;;;3.65;1.52;;;8.90;85.60;;;;;;4946774;28;20043;-69
2022/03/07 12:31:01;;;;;;;1.25;1.10;;;8.90;85.00;;;;;;4969345;28;20453;-71
2022/03/07 12:33:27;;;;;;;1.85;1.02;;;8.90;85.10;;;;;;4955540;28;20027;-70
2022/03/07 12:36:04;;;;;;;1.77;1.00;;;9.00;84.70;;;;;;4931129;28;20039;-70
2022/03/07 12:38:30;;;;;;;0.77;0.77;;;9.10;83.00;;;;;;4937136;29;20054;-69
2022/03/07 12:40:59;;;;;;;1.88;0.73;;;9.10;82.80;;;;;;4947218;28;20053;-72
2022/03/07 12:43:26;;;;;;;2.83;1.20;;;9.10;83.90;;;;;;4934708;28;20078;-69
2022/03/07 12:45:56;;;;;;;2.83;0.80;;;9.20;82.60;;;;;;4953448;28;20114;-69
2022/03/07 12:48:45;;;;;;;2.05;1.02;;;9.30;82.70;;;;;;4966720;28;20069;-69
2022/03/07 12:51:14;;;;;;;3.30;1.00;;;9.30;81.90;;;;;;4949534;28;20036;-69
2022/03/07 12:53:52;;;;;;;1.23;0.90;;;9.40;81.40;;;;;;4968484;28;20035;-69
2022/03/07 12:56:21;;;;;;;2.65;1.60;;;9.50;80.20;;;;;;4962687;28;20055;-69
2022/03/07 12:58:55;;;;;;;4.00;1.08;;;9.50;80.10;;;;;;4959847;28;20032;-70